createdAt,value
2019-04-21T00:00:15.122Z,19
2019-04-21T00:01:12.093Z,19
2019-04-21T00:02:03.777Z,13
2019-04-21T00:03:23.202Z,15
2019-04-21T00:04:38.044Z,15
2019-04-21T00:05:57.546Z,15
2019-04-21T00:07:03.042Z,15
2019-04-21T00:07:42.350Z,15
2019-04-21T00:12:46.755Z,17
2019-04-21T00:14:39.561Z,12
2019-04-21T00:15:33.607Z,17
2019-04-21T00:16:14.064Z,17
2019-04-21T00:17:17.308Z,17
2019-04-21T00:18:10.520Z,17
2019-04-21T00:19:20.700Z,17
2019-04-21T00:20:30.968Z,14
2019-04-21T00:21:29.245Z,16
2019-04-21T00:22:40.505Z,16
2019-04-21T00:23:42.475Z,16
2019-04-21T00:24:34.980Z,16
2019-04-21T00:25:41.610Z,16
2019-04-21T00:26:45.283Z,12
2019-04-21T00:27:51.401Z,16
2019-04-21T00:29:03.973Z,16
2019-04-21T00:29:47.830Z,16
2019-04-21T00:30:53.183Z,16
2019-04-21T00:31:42.044Z,16
2019-04-21T00:32:39.312Z,13
2019-04-21T00:33:22.972Z,18
2019-04-21T00:34:02.969Z,18
2019-04-21T00:35:15.923Z,18
2019-04-21T00:36:22.694Z,18
2019-04-21T00:37:24.232Z,18
2019-04-21T00:39:14.563Z,13
2019-04-21T00:42:55.628Z,16
2019-04-21T00:43:44.735Z,16
2019-04-21T00:44:38.111Z,14
2019-04-21T00:45:42.231Z,18
2019-04-21T00:46:37.460Z,18
2019-04-21T00:47:51.125Z,18
2019-04-21T00:49:57.839Z,18
2019-04-21T00:51:20.807Z,12
2019-04-21T00:52:14.420Z,14
2019-04-21T00:53:23.125Z,14
2019-04-21T00:54:15.184Z,14
2019-04-21T00:56:03.586Z,14
2019-04-21T00:56:34.382Z,14
2019-04-21T00:58:11.939Z,18
2019-04-21T00:58:37.269Z,18
2019-04-21T01:00:58.095Z,18
2019-04-21T01:02:02.488Z,18
2019-04-21T01:03:00.950Z,16
2019-04-21T01:04:04.774Z,17
2019-04-21T01:07:05.301Z,17
2019-04-21T01:08:47.390Z,16
2019-04-21T01:09:46.341Z,18
2019-04-21T01:10:28.781Z,18
2019-04-21T01:14:05.570Z,18
2019-04-21T01:15:18.345Z,12
2019-04-21T01:15:53.014Z,19
2019-04-21T01:17:51.668Z,19
2019-04-21T01:19:46.425Z,19
2019-04-21T01:20:18.217Z,14
2019-04-21T01:21:14.662Z,19
2019-04-21T01:22:02.498Z,19
2019-04-21T01:23:04.379Z,19
2019-04-21T01:24:18.872Z,19
2019-04-21T01:25:25.831Z,19
2019-04-21T01:26:39.067Z,15
2019-04-21T01:27:33.618Z,14
2019-04-21T01:28:49.515Z,14
2019-04-21T01:29:59.801Z,14
2019-04-21T01:30:44.866Z,14
2019-04-21T01:31:42.405Z,14
2019-04-21T01:33:07.607Z,13
2019-04-21T01:35:54.992Z,16
2019-04-21T01:36:49.811Z,16
2019-04-21T01:40:02.536Z,16
2019-04-21T01:40:56.779Z,16
2019-04-21T01:42:00.053Z,16
2019-04-21T01:43:42.520Z,16
2019-04-21T01:44:59.467Z,14
2019-04-21T01:46:45.592Z,15
2019-04-21T01:47:46.305Z,15
2019-04-21T01:48:51.801Z,15
2019-04-21T01:49:29.499Z,15
2019-04-21T01:50:45.140Z,13
2019-04-21T01:51:45.426Z,15
2019-04-21T01:52:38.351Z,15
2019-04-21T01:56:24.404Z,15
2019-04-21T01:57:25.947Z,16
2019-04-21T01:58:34.065Z,16
2019-04-21T01:59:33.180Z,16
2019-04-21T02:00:38.979Z,16
2019-04-21T02:02:59.468Z,15
2019-04-21T02:03:46.985Z,16
2019-04-21T02:05:13.648Z,16
2019-04-21T02:06:57.345Z,16
2019-04-21T02:07:54.689Z,16
2019-04-21T02:09:52.320Z,17
2019-04-21T02:10:59.952Z,17
2019-04-21T02:15:06.324Z,16
2019-04-21T02:16:06.484Z,19
2019-04-21T02:16:54.193Z,19
2019-04-21T02:18:54.419Z,19
2019-04-21T02:19:43.389Z,19
2019-04-21T02:20:36.947Z,18
2019-04-21T02:21:40.759Z,19
2019-04-21T02:23:10.325Z,19
2019-04-21T02:24:11.909Z,19
2019-04-21T02:28:03.745Z,22
2019-04-21T02:29:10.130Z,22
2019-04-21T02:31:26.610Z,22
2019-04-21T02:32:28.657Z,22
2019-04-21T02:32:44.284Z,15
2019-04-21T02:35:40.323Z,18
2019-04-21T02:36:35.923Z,18
2019-04-21T02:37:51.188Z,18
2019-04-21T02:38:39.794Z,18
2019-04-21T02:39:40.733Z,16
2019-04-21T02:40:04.664Z,18
2019-04-21T02:41:51.743Z,18
2019-04-21T02:43:25.045Z,18
2019-04-21T02:44:15.973Z,18
2019-04-21T02:45:33.816Z,17
2019-04-21T02:46:33.404Z,21
2019-04-21T02:47:24.026Z,21
2019-04-21T02:49:22.837Z,21
2019-04-21T02:50:28.415Z,21
2019-04-21T02:50:43.372Z,16
2019-04-21T02:52:31.905Z,18
2019-04-21T02:53:30.550Z,18
2019-04-21T02:55:11.316Z,18
2019-04-21T02:57:23.334Z,16
2019-04-21T02:58:29.425Z,22
2019-04-21T02:58:52.928Z,22
2019-04-21T03:01:23.498Z,22
2019-04-21T03:01:50.345Z,22
2019-04-21T03:03:34.364Z,16
2019-04-21T03:06:28.997Z,18
2019-04-21T03:07:44.299Z,18
2019-04-21T03:09:32.222Z,16
2019-04-21T03:10:46.323Z,21
2019-04-21T03:12:20.178Z,21
2019-04-21T03:12:45.825Z,21
2019-04-21T03:14:40.835Z,21
2019-04-21T03:15:45.096Z,19
2019-04-21T03:16:26.525Z,22
2019-04-21T03:17:21.777Z,22
2019-04-21T03:18:24.419Z,22
2019-04-21T03:21:22.306Z,18
2019-04-21T03:22:24.388Z,24
2019-04-21T03:23:42.789Z,24
2019-04-21T03:24:31.452Z,24
2019-04-21T03:25:36.429Z,24
2019-04-21T03:26:56.044Z,24
2019-04-21T03:27:03.511Z,20
2019-04-21T03:28:30.171Z,24
2019-04-21T03:28:43.498Z,24
2019-04-21T03:32:28.524Z,24
2019-04-21T03:36:33.219Z,20
2019-04-21T03:37:43.616Z,20
2019-04-21T03:37:48.062Z,20
2019-04-21T03:39:07.715Z,21
2019-04-21T03:40:26.199Z,23
2019-04-21T03:43:34.814Z,23
2019-04-21T03:43:46.467Z,23
2019-04-21T03:46:35.776Z,27
2019-04-21T03:47:24.906Z,27
2019-04-21T03:49:39.037Z,27
2019-04-21T03:50:29.681Z,27
2019-04-21T03:51:35.949Z,25
2019-04-21T03:52:53.319Z,25
2019-04-21T03:56:05.997Z,25
2019-04-21T03:57:58.045Z,24
2019-04-21T03:58:54.235Z,32
2019-04-21T03:58:54.396Z,32
2019-04-21T04:00:46.273Z,32
2019-04-21T04:01:11.394Z,32
2019-04-21T04:03:13.408Z,26
2019-04-21T04:04:15.996Z,27
2019-04-21T04:05:49.555Z,27
2019-04-21T04:09:01.490Z,24
2019-04-21T04:10:22.888Z,29
2019-04-21T04:11:37.749Z,29
2019-04-21T04:14:33.497Z,29
2019-04-21T04:15:38.705Z,24
2019-04-21T04:16:38.037Z,30
2019-04-21T04:17:11.681Z,30
2019-04-21T04:18:57.829Z,30
2019-04-21T04:21:30.405Z,28
2019-04-21T04:22:00.152Z,29
2019-04-21T04:24:34.233Z,29
2019-04-21T04:25:34.983Z,29
2019-04-21T04:27:36.935Z,27
2019-04-21T04:28:49.920Z,31
2019-04-21T04:29:12.160Z,31
2019-04-21T04:29:51.348Z,31
2019-04-21T04:31:35.367Z,31
2019-04-21T04:34:18.778Z,34
2019-04-21T04:35:48.975Z,34
2019-04-21T04:36:58.556Z,34
2019-04-21T04:38:43.913Z,34
2019-04-21T04:39:42.693Z,29
2019-04-21T04:40:31.464Z,29
2019-04-21T04:41:28.875Z,29
2019-04-21T04:44:11.526Z,29
2019-04-21T04:45:56.465Z,27
2019-04-21T04:46:30.489Z,31
2019-04-21T04:49:59.348Z,31
2019-04-21T04:51:33.451Z,28
2019-04-21T04:52:33.640Z,36
2019-04-21T04:53:31.017Z,36
2019-04-21T04:54:28.633Z,36
2019-04-21T04:55:33.672Z,36
2019-04-21T04:56:18.192Z,36
2019-04-21T04:57:22.175Z,32
2019-04-21T05:00:15.458Z,31
2019-04-21T05:01:48.564Z,31
2019-04-21T05:01:51.469Z,31
2019-04-21T05:04:51.979Z,30
2019-04-21T05:07:37.639Z,30
2019-04-21T05:09:31.592Z,33
2019-04-21T05:11:39.559Z,35
2019-04-21T05:12:07.768Z,35
2019-04-21T05:14:25.114Z,35
2019-04-21T05:15:19.290Z,43
2019-04-21T05:16:22.062Z,36
2019-04-21T05:16:46.715Z,36
2019-04-21T05:19:20.902Z,36
2019-04-21T05:20:24.264Z,36
2019-04-21T05:21:24.481Z,33
2019-04-21T05:23:55.898Z,36
2019-04-21T05:24:50.962Z,36
2019-04-21T05:25:48.075Z,36
2019-04-21T05:27:47.220Z,36
2019-04-21T05:28:41.937Z,36
2019-04-21T05:29:49.155Z,36
2019-04-21T05:30:36.326Z,36
2019-04-21T05:32:03.503Z,36
2019-04-21T05:34:01.736Z,36
2019-04-21T05:35:26.596Z,36
2019-04-21T05:36:52.055Z,36
2019-04-21T05:37:31.672Z,36
2019-04-21T05:38:43.623Z,32
2019-04-21T05:39:51.034Z,40
2019-04-21T05:40:44.862Z,40
2019-04-21T05:41:31.294Z,40
2019-04-21T05:42:44.186Z,40
2019-04-21T05:43:56.523Z,40
2019-04-21T05:45:17.429Z,37
2019-04-21T05:45:34.832Z,35
2019-04-21T05:48:35.091Z,35
2019-04-21T05:50:45.739Z,34
2019-04-21T05:51:52.887Z,37
2019-04-21T05:52:40.770Z,37
2019-04-21T05:54:14.765Z,37
2019-04-21T05:56:03.615Z,37
2019-04-21T05:56:59.825Z,35
2019-04-21T05:59:26.272Z,42
2019-04-21T06:01:32.846Z,42
2019-04-21T06:02:03.098Z,42
2019-04-21T06:03:11.812Z,32
2019-04-21T06:04:07.688Z,42
2019-04-21T06:05:39.163Z,42
2019-04-21T06:06:20.439Z,42
2019-04-21T06:07:34.712Z,42
2019-04-21T06:08:53.972Z,32
2019-04-21T06:10:00.001Z,40
2019-04-21T06:11:08.547Z,40
2019-04-21T06:14:10.861Z,40
2019-04-21T06:16:07.365Z,40
2019-04-21T06:17:01.486Z,40
2019-04-21T06:18:13.878Z,40
2019-04-21T06:19:05.036Z,40
2019-04-21T06:20:03.040Z,40
2019-04-21T06:21:05.344Z,36
2019-04-21T06:22:46.321Z,45
2019-04-21T06:23:57.061Z,45
2019-04-21T06:26:44.928Z,45
2019-04-21T06:27:27.505Z,36
2019-04-21T06:27:59.582Z,36
2019-04-21T06:28:50.441Z,36
2019-04-21T06:29:58.950Z,36
2019-04-21T06:31:14.316Z,36
2019-04-21T06:32:45.437Z,36
2019-04-21T06:33:57.600Z,36
2019-04-21T06:35:19.472Z,36
2019-04-21T06:36:49.559Z,36
2019-04-21T06:38:26.572Z,36
2019-04-21T06:41:34.967Z,39
2019-04-21T06:42:51.664Z,39
2019-04-21T06:44:57.531Z,37
2019-04-21T06:47:06.402Z,38
2019-04-21T06:48:04.247Z,38
2019-04-21T06:48:59.618Z,38
2019-04-21T06:50:00.491Z,38
2019-04-21T06:52:50.957Z,37
2019-04-21T06:54:10.211Z,37
2019-04-21T06:56:05.018Z,37
2019-04-21T06:57:03.298Z,37
2019-04-21T06:58:02.183Z,34
2019-04-21T06:59:06.058Z,34
2019-04-21T06:59:55.733Z,34
2019-04-21T07:00:55.897Z,34
2019-04-21T07:02:24.337Z,34
2019-04-21T07:03:19.405Z,34
2019-04-21T07:04:56.105Z,41
2019-04-21T07:06:07.826Z,41
2019-04-21T07:06:56.973Z,41
2019-04-21T07:08:16.925Z,41
2019-04-21T07:09:16.036Z,38
2019-04-21T07:10:05.177Z,42
2019-04-21T07:14:54.667Z,38
2019-04-21T07:16:12.275Z,41
2019-04-21T07:17:11.538Z,41
2019-04-21T07:19:33.316Z,41
2019-04-21T07:20:07.274Z,41
2019-04-21T07:21:00.183Z,41
2019-04-21T07:21:51.037Z,40
2019-04-21T07:22:58.358Z,40
2019-04-21T07:23:33.715Z,40
2019-04-21T07:25:07.386Z,40
2019-04-21T07:25:35.121Z,40
2019-04-21T07:30:13.139Z,41
2019-04-21T07:31:11.190Z,41
2019-04-21T07:32:04.388Z,41
2019-04-21T07:32:49.714Z,46
2019-04-21T07:33:49.094Z,45
2019-04-21T07:35:57.869Z,45
2019-04-21T07:37:00.991Z,45
2019-04-21T07:38:55.380Z,49
2019-04-21T07:39:46.592Z,49
2019-04-21T07:40:38.923Z,49
2019-04-21T07:41:18.625Z,49
2019-04-21T07:42:42.890Z,49
2019-04-21T07:43:39.688Z,49
2019-04-21T07:44:40.854Z,53
2019-04-21T07:45:35.158Z,50
2019-04-21T07:46:39.535Z,50
2019-04-21T07:48:27.466Z,50
2019-04-21T07:50:00.876Z,50
2019-04-21T07:50:57.771Z,49
2019-04-21T07:51:59.204Z,47
2019-04-21T07:53:01.124Z,47
2019-04-21T07:54:13.497Z,47
2019-04-21T07:56:24.492Z,37
2019-04-21T07:57:39.715Z,57
2019-04-21T07:59:02.078Z,57
2019-04-21T07:59:41.115Z,57
2019-04-21T08:01:04.397Z,57
2019-04-21T08:04:52.790Z,55
2019-04-21T08:07:51.918Z,55
2019-04-21T08:09:06.265Z,56
2019-04-21T08:09:47.274Z,59
2019-04-21T08:10:50.931Z,59
2019-04-21T08:11:28.167Z,59
2019-04-21T08:12:42.977Z,59
2019-04-21T08:15:07.715Z,61
2019-04-21T08:16:58.951Z,58
2019-04-21T08:22:09.426Z,61
2019-04-21T08:22:48.136Z,61
2019-04-21T08:24:56.200Z,61
2019-04-21T08:27:02.651Z,62
2019-04-21T08:29:13.199Z,61
2019-04-21T08:29:38.043Z,61
2019-04-21T08:30:55.339Z,61
2019-04-21T08:33:18.765Z,63
2019-04-21T08:36:28.127Z,61
2019-04-21T08:37:49.553Z,61
2019-04-21T08:38:54.003Z,98
2019-04-21T08:40:10.519Z,99
2019-04-21T08:41:56.160Z,99
2019-04-21T08:42:52.042Z,99
2019-04-21T08:43:56.136Z,99
2019-04-21T08:45:07.365Z,100
2019-04-21T08:45:30.774Z,101
2019-04-21T08:46:58.834Z,101
2019-04-21T08:48:55.423Z,101
2019-04-21T08:50:03.495Z,101
2019-04-21T08:52:03.786Z,97
2019-04-21T08:52:50.887Z,97
2019-04-21T08:55:05.150Z,97
2019-04-21T08:56:12.311Z,97
2019-04-21T08:58:22.734Z,94
2019-04-21T09:03:59.865Z,92
2019-04-21T09:04:55.601Z,92
2019-04-21T09:08:00.333Z,92
2019-04-21T09:10:52.865Z,84
2019-04-21T09:13:44.572Z,84
2019-04-21T09:15:52.445Z,78
2019-04-21T09:16:42.628Z,78
2019-04-21T09:17:41.113Z,78
2019-04-21T09:18:42.087Z,78
2019-04-21T09:20:09.686Z,78
2019-04-21T09:21:54.603Z,70
2019-04-21T09:22:50.916Z,70
2019-04-21T09:24:00.597Z,70
2019-04-21T09:24:55.928Z,70
2019-04-21T09:28:42.370Z,61
2019-04-21T09:29:26.536Z,61
2019-04-21T09:30:08.849Z,61
2019-04-21T09:31:08.643Z,61
2019-04-21T09:32:15.553Z,62
2019-04-21T09:33:07.374Z,59
2019-04-21T09:34:08.953Z,59
2019-04-21T09:35:12.888Z,59
2019-04-21T09:36:14.354Z,59
2019-04-21T09:37:28.707Z,59
2019-04-21T09:38:29.934Z,57
2019-04-21T09:39:18.409Z,61
2019-04-21T09:40:04.878Z,61
2019-04-21T09:41:06.673Z,61
2019-04-21T09:42:06.634Z,61
2019-04-21T09:43:12.986Z,61
2019-04-21T09:44:08.760Z,57
2019-04-21T09:45:10.033Z,53
2019-04-21T09:46:02.262Z,53
2019-04-21T09:47:08.749Z,53
2019-04-21T09:48:15.580Z,53
2019-04-21T09:49:12.182Z,53
2019-04-21T09:50:06.648Z,50
2019-04-21T09:51:02.276Z,58
2019-04-21T09:52:08.963Z,58
2019-04-21T09:53:26.874Z,58
2019-04-21T09:54:20.678Z,58
2019-04-21T09:55:17.336Z,58
2019-04-21T09:56:14.809Z,55
2019-04-21T09:57:20.567Z,55
2019-04-21T09:58:26.403Z,55
2019-04-21T09:59:23.733Z,55
2019-04-21T10:00:19.481Z,55
2019-04-21T10:01:28.694Z,55
2019-04-21T10:02:20.091Z,46
2019-04-21T10:03:13.915Z,54
2019-04-21T10:04:05.979Z,54
2019-04-21T10:05:02.350Z,54
2019-04-21T10:06:02.582Z,54
2019-04-21T10:07:02.794Z,54
2019-04-21T10:08:03.960Z,41
2019-04-21T10:09:10.222Z,45
2019-04-21T10:10:01.846Z,45
2019-04-21T10:11:05.300Z,45
2019-04-21T10:12:03.468Z,45
2019-04-21T10:13:03.256Z,45
2019-04-21T10:14:05.191Z,40
2019-04-21T10:15:02.407Z,48
2019-04-21T10:16:03.432Z,48
2019-04-21T10:17:04.686Z,48
2019-04-21T10:18:03.107Z,48
2019-04-21T10:19:02.920Z,48
2019-04-21T10:20:05.176Z,43
2019-04-21T10:21:01.752Z,38
2019-04-21T10:22:05.939Z,38
2019-04-21T10:23:03.327Z,38
2019-04-21T10:24:02.462Z,38
2019-04-21T10:25:04.642Z,38
2019-04-21T10:26:01.927Z,43
2019-04-21T10:27:08.565Z,47
2019-04-21T10:28:03.130Z,47
2019-04-21T10:29:19.735Z,47
2019-04-21T10:30:04.064Z,47
2019-04-21T10:31:03.049Z,47
2019-04-21T10:32:01.869Z,39
2019-04-21T10:33:02.035Z,42
2019-04-21T10:34:03.486Z,42
2019-04-21T10:35:03.608Z,42
2019-04-21T10:36:02.752Z,42
2019-04-21T10:37:03.213Z,42
2019-04-21T10:38:28.237Z,40
2019-04-21T10:39:04.085Z,43
2019-04-21T10:40:03.861Z,43
2019-04-21T10:41:03.931Z,43
2019-04-21T10:42:01.983Z,43
2019-04-21T10:43:02.144Z,43
2019-04-21T10:44:03.465Z,31
2019-04-21T10:45:05.083Z,38
2019-04-21T10:46:01.863Z,38
2019-04-21T10:47:03.033Z,38
2019-04-21T10:48:03.453Z,38
2019-04-21T10:49:02.489Z,38
2019-04-21T10:50:04.476Z,27
2019-04-21T10:51:03.624Z,37
2019-04-21T10:52:02.258Z,37
2019-04-21T10:53:03.354Z,37
2019-04-21T10:54:02.322Z,37
2019-04-21T10:55:50.323Z,37
2019-04-21T10:56:25.099Z,32
2019-04-21T10:57:02.401Z,34
2019-04-21T10:58:02.694Z,34
2019-04-21T10:59:02.909Z,34
2019-04-21T11:00:10.780Z,34
2019-04-21T11:01:02.333Z,34
2019-04-21T11:02:03.505Z,33
2019-04-21T11:03:02.756Z,33
2019-04-21T11:04:06.711Z,33
2019-04-21T11:05:04.720Z,33
2019-04-21T11:06:03.725Z,33
2019-04-21T11:07:14.037Z,33
2019-04-21T11:08:27.960Z,25
2019-04-21T11:09:07.262Z,34
2019-04-21T11:10:04.477Z,34
2019-04-21T11:11:04.077Z,34
2019-04-21T11:12:03.988Z,34
2019-04-21T11:13:03.276Z,34
2019-04-21T11:14:02.858Z,30
2019-04-21T11:15:05.336Z,37
2019-04-21T11:16:01.831Z,37
2019-04-21T11:17:02.025Z,37
2019-04-21T11:18:02.239Z,37
2019-04-21T11:19:02.385Z,37
2019-04-21T11:20:02.369Z,32
2019-04-21T11:21:04.827Z,40
2019-04-21T11:22:03.300Z,40
2019-04-21T11:23:02.200Z,40
2019-04-21T11:24:02.333Z,40
2019-04-21T11:25:03.424Z,40
2019-04-21T11:26:04.260Z,31
2019-04-21T11:27:02.419Z,40
2019-04-21T11:28:03.320Z,40
2019-04-21T11:29:03.534Z,40
2019-04-21T11:30:02.689Z,40
2019-04-21T11:31:03.017Z,40
2019-04-21T11:32:03.341Z,38
2019-04-21T11:33:03.911Z,44
2019-04-21T11:34:03.379Z,44
2019-04-21T11:35:03.679Z,44
2019-04-21T11:36:01.854Z,44
2019-04-21T11:37:02.378Z,44
2019-04-21T11:38:18.974Z,40
2019-04-21T11:39:31.718Z,45
2019-04-21T11:40:14.396Z,45
2019-04-21T11:41:01.904Z,45
2019-04-21T11:42:02.061Z,45
2019-04-21T11:43:02.281Z,45
2019-04-21T11:44:05.271Z,42
2019-04-21T11:45:03.862Z,49
2019-04-21T11:46:04.398Z,49
2019-04-21T11:47:02.951Z,49
2019-04-21T11:48:02.442Z,49
2019-04-21T11:49:04.032Z,49
2019-04-21T11:50:03.707Z,45
2019-04-21T11:51:01.896Z,43
2019-04-21T11:52:03.281Z,43
2019-04-21T11:53:05.237Z,43
2019-04-21T11:54:02.599Z,43
2019-04-21T11:55:03.093Z,43
2019-04-21T11:56:03.163Z,35
2019-04-21T11:57:22.067Z,43
2019-04-21T11:58:03.879Z,43
2019-04-21T11:59:02.050Z,43
2019-04-21T12:00:04.295Z,43
2019-04-21T12:01:03.869Z,43
2019-04-21T12:02:01.866Z,35
2019-04-21T12:03:01.979Z,40
2019-04-21T12:04:03.713Z,40
2019-04-21T12:05:03.898Z,40
2019-04-21T12:06:04.015Z,40
2019-04-21T12:07:02.275Z,40
2019-04-21T12:08:02.475Z,30
2019-04-21T12:09:06.529Z,40
2019-04-21T12:10:03.704Z,40
2019-04-21T12:11:04.010Z,40
2019-04-21T12:12:03.292Z,40
2019-04-21T12:13:07.371Z,40
2019-04-21T12:14:01.932Z,34
2019-04-21T12:15:02.297Z,37
2019-04-21T12:16:03.553Z,37
2019-04-21T12:17:03.045Z,37
2019-04-21T12:18:02.085Z,37
2019-04-21T12:19:03.361Z,37
2019-04-21T12:20:03.619Z,37
2019-04-21T12:21:05.216Z,42
2019-04-21T12:22:21.662Z,42
2019-04-21T12:23:02.877Z,42
2019-04-21T12:24:03.100Z,42
2019-04-21T12:25:03.374Z,42
2019-04-21T12:26:03.507Z,42
2019-04-21T12:27:02.718Z,41
2019-04-21T12:28:02.052Z,41
2019-04-21T12:29:02.237Z,41
2019-04-21T12:30:03.831Z,41
2019-04-21T12:31:03.697Z,41
2019-04-21T12:32:03.512Z,38
2019-04-21T12:33:02.698Z,42
2019-04-21T12:34:03.575Z,42
2019-04-21T12:35:04.160Z,42
2019-04-21T12:36:02.309Z,42
2019-04-21T12:37:02.050Z,42
2019-04-21T12:38:03.160Z,33
2019-04-21T12:39:08.645Z,36
2019-04-21T12:40:03.633Z,36
2019-04-21T12:41:02.772Z,36
2019-04-21T12:42:02.997Z,36
2019-04-21T12:43:03.423Z,36
2019-04-21T12:44:02.985Z,37
2019-04-21T12:45:03.478Z,39
2019-04-21T12:46:02.678Z,39
2019-04-21T12:47:03.606Z,39
2019-04-21T12:48:04.561Z,39
2019-04-21T12:49:02.620Z,39
2019-04-21T12:50:04.503Z,38
2019-04-21T12:51:03.769Z,37
2019-04-21T12:52:04.112Z,37
2019-04-21T12:53:03.202Z,37
2019-04-21T12:54:03.667Z,37
2019-04-21T12:55:03.720Z,37
2019-04-21T12:56:02.582Z,35
2019-04-21T12:57:03.820Z,38
2019-04-21T12:58:01.789Z,38
2019-04-21T12:59:02.094Z,38
2019-04-21T13:00:05.131Z,38
2019-04-21T13:01:03.354Z,38
2019-04-21T13:02:03.623Z,34
2019-04-21T13:03:04.002Z,37
2019-04-21T13:04:02.230Z,37
2019-04-21T13:05:03.868Z,37
2019-04-21T13:06:03.770Z,37
2019-04-21T13:07:04.016Z,37
2019-04-21T13:08:04.238Z,35
2019-04-21T13:09:12.420Z,41
2019-04-21T13:10:04.272Z,41
2019-04-21T13:11:04.368Z,41
2019-04-21T13:12:02.617Z,41
2019-04-21T13:13:02.103Z,41
2019-04-21T13:14:02.288Z,39
2019-04-21T13:15:04.506Z,48
2019-04-21T13:16:03.615Z,48
2019-04-21T13:17:01.843Z,48
2019-04-21T13:18:04.534Z,48
2019-04-21T13:19:02.939Z,48
2019-04-21T13:20:03.806Z,37
2019-04-21T13:21:05.917Z,48
2019-04-21T13:22:04.199Z,48
2019-04-21T13:23:02.218Z,48
2019-04-21T13:24:03.462Z,48
2019-04-21T13:25:02.848Z,48
2019-04-21T13:26:06.193Z,43
2019-04-21T13:27:07.004Z,48
2019-04-21T13:28:03.321Z,48
2019-04-21T13:29:03.081Z,48
2019-04-21T13:30:02.633Z,48
2019-04-21T13:31:02.648Z,48
2019-04-21T13:32:06.844Z,46
2019-04-21T13:33:03.413Z,51
2019-04-21T13:34:04.066Z,51
2019-04-21T13:35:05.256Z,51
2019-04-21T13:36:04.814Z,51
2019-04-21T13:37:03.506Z,51
2019-04-21T13:38:04.568Z,40
2019-04-21T13:40:09.767Z,47
2019-04-21T13:40:31.170Z,47
2019-04-21T13:41:36.514Z,47
2019-04-21T13:42:25.901Z,47
2019-04-21T13:43:08.284Z,47
2019-04-21T13:44:03.655Z,47
2019-04-21T13:45:06.032Z,53
2019-04-21T13:46:04.174Z,53
2019-04-21T13:47:03.069Z,53
2019-04-21T13:48:02.024Z,53
2019-04-21T13:49:03.555Z,53
2019-04-21T13:50:07.162Z,45
2019-04-21T13:51:02.242Z,47
2019-04-21T13:52:03.054Z,47
2019-04-21T13:53:03.073Z,47
2019-04-21T13:54:03.966Z,47
2019-04-21T13:55:05.457Z,47
2019-04-21T13:56:04.597Z,41
2019-04-21T13:57:04.777Z,42
2019-04-21T13:58:02.446Z,42
2019-04-21T13:59:02.581Z,42
2019-04-21T14:00:06.041Z,42
2019-04-21T14:01:03.409Z,42
2019-04-21T14:02:02.993Z,37
2019-04-21T14:03:04.668Z,41
2019-04-21T14:04:02.578Z,41
2019-04-21T14:05:03.372Z,41
2019-04-21T14:06:02.890Z,41
2019-04-21T14:07:02.837Z,41
2019-04-21T14:08:04.973Z,39
2019-04-21T14:09:03.146Z,37
2019-04-21T14:10:11.055Z,37
2019-04-21T14:11:02.126Z,37
2019-04-21T14:12:03.739Z,37
2019-04-21T14:13:04.652Z,37
2019-04-21T14:14:03.025Z,36
2019-04-21T14:15:04.057Z,39
2019-04-21T14:16:02.511Z,39
2019-04-21T14:17:07.064Z,39
2019-04-21T14:18:03.186Z,39
2019-04-21T14:19:03.460Z,39
2019-04-21T14:20:02.303Z,32
2019-04-21T14:21:03.464Z,38
2019-04-21T14:22:03.766Z,38
2019-04-21T14:23:25.488Z,38
2019-04-21T14:24:01.898Z,38
2019-04-21T14:25:03.684Z,38
2019-04-21T14:26:03.769Z,40
2019-04-21T14:27:03.042Z,38
2019-04-21T14:28:02.419Z,38
2019-04-21T14:29:02.381Z,38
2019-04-21T14:30:04.834Z,38
2019-04-21T14:31:04.183Z,38
2019-04-21T14:32:02.428Z,31
2019-04-21T14:33:02.712Z,34
2019-04-21T14:34:02.125Z,34
2019-04-21T14:35:04.788Z,34
2019-04-21T14:36:03.243Z,34
2019-04-21T14:37:02.916Z,34
2019-04-21T14:38:04.737Z,33
2019-04-21T14:39:04.722Z,34
2019-04-21T14:40:16.248Z,34
2019-04-21T14:41:02.646Z,34
2019-04-21T14:42:02.606Z,34
2019-04-21T14:43:03.065Z,34
2019-04-21T14:44:04.673Z,35
2019-04-21T14:45:04.965Z,38
2019-04-21T14:46:03.329Z,38
2019-04-21T14:47:03.432Z,38
2019-04-21T14:48:05.052Z,38
2019-04-21T14:49:05.448Z,38
2019-04-21T14:50:05.103Z,30
2019-04-21T14:51:02.628Z,35
2019-04-21T14:52:03.495Z,35
2019-04-21T14:53:03.643Z,35
2019-04-21T14:54:04.051Z,35
2019-04-21T14:55:04.727Z,35
2019-04-21T14:56:03.597Z,33
2019-04-21T14:57:05.037Z,33
2019-04-21T14:58:03.756Z,33
2019-04-21T14:59:07.095Z,33
2019-04-21T15:00:03.336Z,33
2019-04-21T15:01:02.428Z,33
2019-04-21T15:02:03.933Z,34
2019-04-21T15:03:04.033Z,31
2019-04-21T15:04:04.159Z,31
2019-04-21T15:05:03.903Z,31
2019-04-21T15:06:03.605Z,31
2019-04-21T15:07:03.780Z,31
2019-04-21T15:08:03.753Z,30
2019-04-21T15:09:03.375Z,32
2019-04-21T15:10:18.472Z,32
2019-04-21T15:11:03.587Z,32
2019-04-21T15:12:02.777Z,32
2019-04-21T15:13:01.960Z,32
2019-04-21T15:14:02.379Z,33
2019-04-21T15:15:02.627Z,31
2019-04-21T15:16:03.087Z,31
2019-04-21T15:17:03.322Z,31
2019-04-21T15:18:02.295Z,31
2019-04-21T15:19:02.786Z,31
2019-04-21T15:20:14.292Z,29
2019-04-21T15:21:05.621Z,31
2019-04-21T15:22:03.039Z,31
2019-04-21T15:23:02.502Z,31
2019-04-21T15:24:02.839Z,31
2019-04-21T15:25:03.213Z,31
2019-04-21T15:26:02.366Z,29
2019-04-21T15:27:03.456Z,34
2019-04-21T15:28:03.574Z,34
2019-04-21T15:29:04.357Z,34
2019-04-21T15:30:04.714Z,34
2019-04-21T15:31:03.255Z,34
2019-04-21T15:32:02.171Z,41
2019-04-21T15:33:04.412Z,49
2019-04-21T15:34:03.583Z,49
2019-04-21T15:35:04.265Z,49
2019-04-21T15:36:03.293Z,49
2019-04-21T15:37:02.322Z,49
2019-04-21T15:38:02.426Z,45
2019-04-21T15:39:03.935Z,46
2019-04-21T15:40:27.262Z,46
2019-04-21T15:41:10.626Z,46
2019-04-21T15:42:03.168Z,46
2019-04-21T15:43:04.233Z,46
2019-04-21T15:44:06.437Z,44
2019-04-21T15:45:03.213Z,51
2019-04-21T15:46:03.016Z,51
2019-04-21T15:47:02.406Z,51
2019-04-21T15:48:02.571Z,51
2019-04-21T15:49:03.217Z,51
2019-04-21T15:50:14.284Z,43
2019-04-21T15:51:07.418Z,44
2019-04-21T15:52:02.564Z,44
2019-04-21T15:53:03.830Z,44
2019-04-21T15:54:03.052Z,44
2019-04-21T15:55:05.192Z,44
2019-04-21T15:56:02.927Z,41
2019-04-21T15:57:03.196Z,43
2019-04-21T15:58:03.099Z,43
2019-04-21T15:59:01.832Z,43
2019-04-21T16:00:06.655Z,43
2019-04-21T16:01:03.079Z,43
2019-04-21T16:02:02.271Z,39
2019-04-21T16:03:02.830Z,42
2019-04-21T16:04:06.152Z,42
2019-04-21T16:05:01.960Z,42
2019-04-21T16:06:03.714Z,42
2019-04-21T16:07:04.112Z,42
2019-04-21T16:08:03.765Z,40
2019-04-21T16:09:06.400Z,41
2019-04-21T16:10:07.119Z,41
2019-04-21T16:11:10.840Z,41
2019-04-21T16:12:03.985Z,41
2019-04-21T16:13:03.844Z,41
2019-04-21T16:14:03.631Z,37
2019-04-21T16:15:04.794Z,40
2019-04-21T16:16:02.585Z,40
2019-04-21T16:17:04.080Z,40
2019-04-21T16:18:03.594Z,40
2019-04-21T16:19:02.124Z,40
2019-04-21T16:20:06.009Z,35
2019-04-21T16:21:06.041Z,42
2019-04-21T16:22:48.714Z,42
2019-04-21T16:23:02.680Z,42
2019-04-21T16:24:04.499Z,42
2019-04-21T16:25:05.073Z,42
2019-04-21T16:26:04.397Z,37
2019-04-21T16:27:10.307Z,47
2019-04-21T16:28:01.965Z,47
2019-04-21T16:29:03.290Z,47
2019-04-21T16:30:03.804Z,47
2019-04-21T16:31:02.915Z,47
2019-04-21T16:32:02.773Z,47
2019-04-21T16:33:02.329Z,42
2019-04-21T16:34:05.130Z,42
2019-04-21T16:35:12.443Z,42
2019-04-21T16:36:02.621Z,42
2019-04-21T16:37:01.884Z,42
2019-04-21T16:38:07.687Z,39
2019-04-21T16:39:02.236Z,41
2019-04-21T16:40:03.740Z,41
2019-04-21T16:41:11.878Z,41
2019-04-21T16:42:02.957Z,41
2019-04-21T16:43:02.064Z,41
2019-04-21T16:44:03.383Z,34
2019-04-21T16:45:04.746Z,39
2019-04-21T16:46:01.833Z,39
2019-04-21T16:47:03.699Z,39
2019-04-21T16:48:05.279Z,39
2019-04-21T16:49:04.081Z,39
2019-04-21T16:50:03.453Z,36
2019-04-21T16:51:02.006Z,38
2019-04-21T16:52:02.679Z,38
2019-04-21T16:53:02.186Z,38
2019-04-21T16:54:02.255Z,38
2019-04-21T16:55:06.614Z,38
2019-04-21T16:56:03.056Z,36
2019-04-21T16:57:04.069Z,43
2019-04-21T16:58:19.858Z,43
2019-04-21T16:59:03.279Z,43
2019-04-21T17:00:06.420Z,43
2019-04-21T17:01:15.953Z,43
2019-04-21T17:02:03.113Z,34
2019-04-21T17:03:02.326Z,39
2019-04-21T17:04:04.447Z,39